sensor_id;sensor_type;location;lat;lon;timestamp;P1;durP1;ratioP1;P2;durP2;ratioP2
37151;SDS011;23046;50.112;8.952;2023-11-19T00:00:04;3.07;;;2.07;;
37151;SDS011;23046;50.112;8.952;2023-11-19T00:00:20;3.13;;;2.08;;
37151;SDS011;23046;50.112;8.952;2023-11-19T00:00:31;2.40;;;2.00;;
37151;SDS011;23046;50.112;8.952;2023-11-19T00:00:41;2.10;;;1.90;;
37151;SDS011;23046;50.112;8.952;2023-11-19T00:00:51;2.10;;;1.90;;
37151;SDS011;23046;50.112;8.952;2023-11-19T00:01:01;2.00;;;1.88;;
37151;SDS011;23046;50.112;8.952;2023-11-19T00:01:12;1.90;;;1.80;;
37151;SDS011;23046;50.112;8.952;2023-11-19T00:01:22;2.10;;;1.90;;
37151;SDS011;23046;50.112;8.952;2023-11-19T00:01:32;2.37;;;1.83;;
37151;SDS011;23046;50.112;8.952;2023-11-19T00:01:42;2.42;;;1.90;;
37151;SDS011;23046;50.112;8.952;2023-11-19T00:01:53;2.57;;;1.90;;
37151;SDS011;23046;50.112;8.952;2023-11-19T00:02:03;3.10;;;2.00;;
37151;SDS011;23046;50.112;8.952;2023-11-19T00:02:13;3.00;;;1.95;;
37151;SDS011;23046;50.112;8.952;2023-11-19T00:02:24;3.10;;;1.80;;
37151;SDS011;23046;50.112;8.952;2023-11-19T00:02:34;2.20;;;1.80;;
37151;SDS011;23046;50.112;8.952;2023-11-19T00:02:44;2.05;;;1.80;;
37151;SDS011;23046;50.112;8.952;2023-11-19T00:02:55;2.70;;;1.97;;
37151;SDS011;23046;50.112;8.952;2023-11-19T00:03:05;2.57;;;1.73;;
37151;SDS011;23046;50.112;8.952;2023-11-19T00:03:15;2.83;;;1.90;;
37151;SDS011;23046;50.112;8.952;2023-11-19T00:03:26;2.00;;;1.77;;
37151;SDS011;23046;50.112;8.952;2023-11-19T00:03:36;2.00;;;1.80;;
37151;SDS011;23046;50.112;8.952;2023-11-19T00:03:46;1.97;;;1.83;;
37151;SDS011;23046;50.112;8.952;2023-11-19T00:03:57;2.28;;;1.90;;
37151;SDS011;23046;50.112;8.952;2023-11-19T00:04:07;2.87;;;1.90;;
37151;SDS011;23046;50.112;8.952;2023-11-19T00:04:18;2.67;;;1.80;;
37151;SDS011;23046;50.112;8.952;2023-11-19T00:04:28;2.30;;;1.63;;
37151;SDS011;23046;50.112;8.952;2023-11-19T00:04:40;2.03;;;1.80;;
37151;SDS011;23046;50.112;8.952;2023-11-19T00:04:50;2.27;;;1.87;;
37151;SDS011;23046;50.112;8.952;2023-11-19T00:05:00;2.27;;;1.90;;
37151;SDS011;23046;50.112;8.952;2023-11-19T00:05:10;2.15;;;1.90;;
37151;SDS011;23046;50.112;8.952;2023-11-19T00:05:23;1.90;;;1.80;;
37151;SDS011;23046;50.112;8.952;2023-11-19T00:05:34;1.90;;;1.73;;
37151;SDS011;23046;50.112;8.952;2023-11-19T00:05:44;2.90;;;1.80;;
37151;SDS011;23046;50.112;8.952;2023-11-19T00:05:57;3.78;;;1.88;;
37151;SDS011;23046;50.112;8.952;2023-11-19T00:06:07;2.30;;;1.80;;
37151;SDS011;23046;50.112;8.952;2023-11-19T00:06:19;2.00;;;1.70;;
37151;SDS011;23046;50.112;8.952;2023-11-19T00:06:30;1.90;;;1.70;;
37151;SDS011;23046;50.112;8.952;2023-11-19T00:06:40;2.30;;;1.77;;
37151;SDS011;23046;50.112;8.952;2023-11-19T00:06:50;2.20;;;1.80;;
37151;SDS011;23046;50.112;8.952;2023-11-19T00:07:01;2.10;;;1.80;;
37151;SDS011;23046;50.112;8.952;2023-11-19T00:07:14;2.05;;;1.88;;
37151;SDS011;23046;50.112;8.952;2023-11-19T00:07:24;2.10;;;1.90;;
37151;SDS011;23046;50.112;8.952;2023-11-19T00:07:35;3.10;;;1.97;;
37151;SDS011;23046;50.112;8.952;2023-11-19T00:07:46;3.38;;;1.92;;
37151;SDS011;23046;50.112;8.952;2023-11-19T00:07:56;3.40;;;2.00;;
37151;SDS011;23046;50.112;8.952;2023-11-19T00:08:06;2.60;;;1.87;;
37151;SDS011;23046;50.112;8.952;2023-11-19T00:08:17;2.40;;;1.85;;
37151;SDS011;23046;50.112;8.952;2023-11-19T00:08:27;2.07;;;1.67;;
37151;SDS011;23046;50.112;8.952;2023-11-19T00:08:37;1.67;;;1.57;;
37151;SDS011;23046;50.112;8.952;2023-11-19T00:08:47;1.77;;;1.63;;
37151;SDS011;23046;50.112;8.952;2023-11-19T00:08:58;2.60;;;1.80;;
37151;SDS011;23046;50.112;8.952;2023-11-19T00:09:10;2.53;;;1.70;;
37151;SDS011;23046;50.112;8.952;2023-11-19T00:09:20;1.70;;;1.60;;
37151;SDS011;23046;50.112;8.952;2023-11-19T00:09:30;1.77;;;1.60;;
37151;SDS011;23046;50.112;8.952;2023-11-19T00:09:41;2.00;;;1.80;;
37151;SDS011;23046;50.112;8.952;2023-11-19T00:09:53;2.10;;;1.90;;
37151;SDS011;23046;50.112;8.952;2023-11-19T00:10:05;2.10;;;1.90;;
37151;SDS011;23046;50.112;8.952;2023-11-19T00:10:17;1.95;;;1.75;;
37151;SDS011;23046;50.112;8.952;2023-11-19T00:10:30;3.85;;;1.85;;
37151;SDS011;23046;50.112;8.952;2023-11-19T00:10:41;4.20;;;1.87;;
37151;SDS011;23046;50.112;8.952;2023-11-19T00:10:51;4.05;;;1.80;;
37151;SDS011;23046;50.112;8.952;2023-11-19T00:11:01;2.37;;;1.70;;
37151;SDS011;23046;50.112;8.952;2023-11-19T00:11:13;3.20;;;1.60;;
37151;SDS011;23046;50.112;8.952;2023-11-19T00:11:25;2.97;;;1.55;;
37151;SDS011;23046;50.112;8.952;2023-11-19T00:11:36;2.60;;;1.40;;
37151;SDS011;23046;50.112;8.952;2023-11-19T00:11:46;1.77;;;1.60;;
37151;SDS011;23046;50.112;8.952;2023-11-19T00:11:57;1.70;;;1.60;;
37151;SDS011;23046;50.112;8.952;2023-11-19T00:12:07;1.73;;;1.63;;
37151;SDS011;23046;50.112;8.952;2023-11-19T00:12:18;1.67;;;1.52;;
37151;SDS011;23046;50.112;8.952;2023-11-19T00:12:28;2.20;;;1.77;;
37151;SDS011;23046;50.112;8.952;2023-11-19T00:12:42;2.92;;;1.85;;
37151;SDS011;23046;50.112;8.952;2023-11-19T00:12:52;2.78;;;1.70;;
37151;SDS011;23046;50.112;8.952;2023-11-19T00:13:03;2.53;;;1.60;;
37151;SDS011;23046;50.112;8.952;2023-11-19T00:13:13;1.67;;;1.50;;
37151;SDS011;23046;50.112;8.952;2023-11-19T00:13:23;1.77;;;1.67;;
37151;SDS011;23046;50.112;8.952;2023-11-19T00:13:33;2.30;;;1.60;;
37151;SDS011;23046;50.112;8.952;2023-11-19T00:13:43;2.50;;;1.70;;
37151;SDS011;23046;50.112;8.952;2023-11-19T00:13:54;2.17;;;1.53;;
37151;SDS011;23046;50.112;8.952;2023-11-19T00:14:04;1.75;;;1.50;;
37151;SDS011;23046;50.112;8.952;2023-11-19T00:14:17;1.90;;;1.60;;
37151;SDS011;23046;50.112;8.952;2023-11-19T00:14:28;2.10;;;1.80;;
37151;SDS011;23046;50.112;8.952;2023-11-19T00:14:39;1.95;;;1.80;;
37151;SDS011;23046;50.112;8.952;2023-11-19T00:14:49;1.88;;;1.70;;
37151;SDS011;23046;50.112;8.952;2023-11-19T00:14:59;1.60;;;1.50;;
37151;SDS011;23046;50.112;8.952;2023-11-19T00:15:10;1.67;;;1.57;;
37151;SDS011;23046;50.112;8.952;2023-11-19T00:15:21;1.73;;;1.63;;
37151;SDS011;23046;50.112;8.952;2023-11-19T00:15:31;3.20;;;1.60;;
37151;SDS011;23046;50.112;8.952;2023-11-19T00:15:41;3.70;;;1.63;;
37151;SDS011;23046;50.112;8.952;2023-11-19T00:15:52;4.70;;;1.58;;
37151;SDS011;23046;50.112;8.952;2023-11-19T00:16:03;3.33;;;1.60;;
37151;SDS011;23046;50.112;8.952;2023-11-19T00:16:14;2.63;;;1.63;;
37151;SDS011;23046;50.112;8.952;2023-11-19T00:16:26;2.00;;;1.80;;
37151;SDS011;23046;50.112;8.952;2023-11-19T00:16:36;2.03;;;1.85;;
37151;SDS011;23046;50.112;8.952;2023-11-19T00:16:46;2.00;;;1.80;;
37151;SDS011;23046;50.112;8.952;2023-11-19T00:16:57;1.97;;;1.77;;
37151;SDS011;23046;50.112;8.952;2023-11-19T00:17:07;2.40;;;2.00;;
37151;SDS011;23046;50.112;8.952;2023-11-19T00:17:17;2.33;;;1.90;;
37151;SDS011;23046;50.112;8.952;2023-11-19T00:17:27;3.13;;;1.90;;
37151;SDS011;23046;50.112;8.952;2023-11-19T00:17:38;3.27;;;1.70;;
37151;SDS011;23046;50.112;8.952;2023-11-19T00:17:50;3.17;;;1.70;;
37151;SDS011;23046;50.112;8.952;2023-11-19T00:18:00;3.10;;;1.60;;
37151;SDS011;23046;50.112;8.952;2023-11-19T00:18:14;2.55;;;1.67;;
37151;SDS011;23046;50.112;8.952;2023-11-19T00:18:24;1.97;;;1.60;;
37151;SDS011;23046;50.112;8.952;2023-11-19T00:18:35;1.90;;;1.60;;
37151;SDS011;23046;50.112;8.952;2023-11-19T00:18:46;1.85;;;1.48;;
37151;SDS011;23046;50.112;8.952;2023-11-19T00:18:56;2.20;;;1.50;;
37151;SDS011;23046;50.112;8.952;2023-11-19T00:19:06;2.60;;;1.60;;
37151;SDS011;23046;50.112;8.952;2023-11-19T00:19:18;2.05;;;1.70;;
37151;SDS011;23046;50.112;8.952;2023-11-19T00:19:28;1.83;;;1.70;;
37151;SDS011;23046;50.112;8.952;2023-11-19T00:19:39;1.87;;;1.70;;
37151;SDS011;23046;50.112;8.952;2023-11-19T00:19:49;1.70;;;1.60;;
37151;SDS011;23046;50.112;8.952;2023-11-19T00:20:01;1.90;;;1.70;;
37151;SDS011;23046;50.112;8.952;2023-11-19T00:20:16;2.05;;;1.85;;
37151;SDS011;23046;50.112;8.952;2023-11-19T00:20:27;1.73;;;1.63;;
37151;SDS011;23046;50.112;8.952;2023-11-19T00:20:37;1.93;;;1.50;;
37151;SDS011;23046;50.112;8.952;2023-11-19T00:20:47;2.10;;;1.40;;
37151;SDS011;23046;50.112;8.952;2023-11-19T00:20:57;2.40;;;1.50;;
37151;SDS011;23046;50.112;8.952;2023-11-19T00:21:08;2.57;;;1.70;;
37151;SDS011;23046;50.112;8.952;2023-11-19T00:21:19;2.80;;;1.80;;
37151;SDS011;23046;50.112;8.952;2023-11-19T00:21:30;2.43;;;1.83;;
37151;SDS011;23046;50.112;8.952;2023-11-19T00:21:40;1.93;;;1.70;;
37151;SDS011;23046;50.112;8.952;2023-11-19T00:21:51;1.90;;;1.70;;
37151;SDS011;23046;50.112;8.952;2023-11-19T00:22:01;1.90;;;1.70;;
37151;SDS011;23046;50.112;8.952;2023-11-19T00:22:12;1.65;;;1.52;;
37151;SDS011;23046;50.112;8.952;2023-11-19T00:22:23;1.53;;;1.43;;
37151;SDS011;23046;50.112;8.952;2023-11-19T00:22:33;1.40;;;1.30;;
37151;SDS011;23046;50.112;8.952;2023-11-19T00:22:43;1.95;;;1.38;;
37151;SDS011;23046;50.112;8.952;2023-11-19T00:22:53;1.93;;;1.40;;
37151;SDS011;23046;50.112;8.952;2023-11-19T00:23:04;2.20;;;1.50;;
37151;SDS011;23046;50.112;8.952;2023-11-19T00:23:14;1.60;;;1.50;;
37151;SDS011;23046;50.112;8.952;2023-11-19T00:23:24;1.60;;;1.50;;
37151;SDS011;23046;50.112;8.952;2023-11-19T00:23:34;1.60;;;1.50;;
37151;SDS011;23046;50.112;8.952;2023-11-19T00:23:45;1.50;;;1.40;;
37151;SDS011;23046;50.112;8.952;2023-11-19T00:23:55;1.50;;;1.40;;
37151;SDS011;23046;50.112;8.952;2023-11-19T00:24:05;1.60;;;1.40;;
37151;SDS011;23046;50.112;8.952;2023-11-19T00:24:16;1.90;;;1.73;;
37151;SDS011;23046;50.112;8.952;2023-11-19T00:24:27;1.80;;;1.70;;
37151;SDS011;23046;50.112;8.952;2023-11-19T00:24:38;1.63;;;1.52;;
37151;SDS011;23046;50.112;8.952;2023-11-19T00:24:49;2.17;;;1.50;;
37151;SDS011;23046;50.112;8.952;2023-11-19T00:24:59;2.38;;;1.58;;
37151;SDS011;23046;50.112;8.952;2023-11-19T00:25:10;2.23;;;1.60;;
37151;SDS011;23046;50.112;8.952;2023-11-19T00:25:20;1.80;;;1.70;;
37151;SDS011;23046;50.112;8.952;2023-11-19T00:25:34;2.20;;;1.55;;
37151;SDS011;23046;50.112;8.952;2023-11-19T00:25:44;2.03;;;1.40;;
37151;SDS011;23046;50.112;8.952;2023-11-19T00:25:54;1.63;;;1.37;;
37151;SDS011;23046;50.112;8.952;2023-11-19T00:26:04;1.60;;;1.50;;
37151;SDS011;23046;50.112;8.952;2023-11-19T00:26:16;1.60;;;1.50;;
37151;SDS011;23046;50.112;8.952;2023-11-19T00:26:29;1.65;;;1.50;;
37151;SDS011;23046;50.112;8.952;2023-11-19T00:26:41;1.90;;;1.50;;
37151;SDS011;23046;50.112;8.952;2023-11-19T00:26:51;1.92;;;1.52;;
37151;SDS011;23046;50.112;8.952;2023-11-19T00:27:02;1.77;;;1.60;;
37151;SDS011;23046;50.112;8.952;2023-11-19T00:27:12;1.80;;;1.70;;
37151;SDS011;23046;50.112;8.952;2023-11-19T00:27:22;1.70;;;1.60;;
37151;SDS011;23046;50.112;8.952;2023-11-19T00:27:33;1.55;;;1.45;;
37151;SDS011;23046;50.112;8.952;2023-11-19T00:27:43;1.67;;;1.57;;
37151;SDS011;23046;50.112;8.952;2023-11-19T00:27:54;2.25;;;1.80;;
37151;SDS011;23046;50.112;8.952;2023-11-19T00:28:06;2.22;;;1.70;;
37151;SDS011;23046;50.112;8.952;2023-11-19T00:28:16;1.83;;;1.60;;
37151;SDS011;23046;50.112;8.952;2023-11-19T00:28:26;1.70;;;1.60;;
37151;SDS011;23046;50.112;8.952;2023-11-19T00:28:37;1.85;;;1.60;;
37151;SDS011;23046;50.112;8.952;2023-11-19T00:28:48;1.95;;;1.67;;
37151;SDS011;23046;50.112;8.952;2023-11-19T00:28:59;1.92;;;1.70;;
37151;SDS011;23046;50.112;8.952;2023-11-19T00:29:09;2.13;;;1.80;;
37151;SDS011;23046;50.112;8.952;2023-11-19T00:29:20;2.00;;;1.77;;
37151;SDS011;23046;50.112;8.952;2023-11-19T00:29:30;1.70;;;1.58;;
37151;SDS011;23046;50.112;8.952;2023-11-19T00:29:41;2.20;;;1.58;;
37151;SDS011;23046;50.112;8.952;2023-11-19T00:29:51;3.07;;;1.77;;
37151;SDS011;23046;50.112;8.952;2023-11-19T00:30:01;4.03;;;1.80;;
37151;SDS011;23046;50.112;8.952;2023-11-19T00:30:15;3.30;;;1.90;;
37151;SDS011;23046;50.112;8.952;2023-11-19T00:30:25;2.17;;;1.63;;
37151;SDS011;23046;50.112;8.952;2023-11-19T00:30:35;1.90;;;1.73;;
37151;SDS011;23046;50.112;8.952;2023-11-19T00:30:45;1.70;;;1.60;;
37151;SDS011;23046;50.112;8.952;2023-11-19T00:30:56;1.70;;;1.60;;
37151;SDS011;23046;50.112;8.952;2023-11-19T00:31:06;1.98;;;1.60;;
37151;SDS011;23046;50.112;8.952;2023-11-19T00:31:16;1.97;;;1.60;;
37151;SDS011;23046;50.112;8.952;2023-11-19T00:31:26;2.47;;;1.70;;
37151;SDS011;23046;50.112;8.952;2023-11-19T00:31:37;1.98;;;1.55;;
37151;SDS011;23046;50.112;8.952;2023-11-19T00:31:48;2.58;;;1.50;;
37151;SDS011;23046;50.112;8.952;2023-11-19T00:31:58;2.27;;;1.70;;
37151;SDS011;23046;50.112;8.952;2023-11-19T00:32:08;2.30;;;1.77;;
37151;SDS011;23046;50.112;8.952;2023-11-19T00:32:19;2.00;;;1.80;;
37151;SDS011;23046;50.112;8.952;2023-11-19T00:32:29;1.90;;;1.70;;
37151;SDS011;23046;50.112;8.952;2023-11-19T00:32:39;2.03;;;1.70;;
37151;SDS011;23046;50.112;8.952;2023-11-19T00:32:50;2.03;;;1.58;;
37151;SDS011;23046;50.112;8.952;2023-11-19T00:33:00;2.03;;;1.50;;
37151;SDS011;23046;50.112;8.952;2023-11-19T00:33:10;2.20;;;1.47;;
37151;SDS011;23046;50.112;8.952;2023-11-19T00:33:22;2.70;;;1.40;;
37151;SDS011;23046;50.112;8.952;2023-11-19T00:33:32;2.50;;;1.30;;
37151;SDS011;23046;50.112;8.952;2023-11-19T00:33:42;1.53;;;1.40;;
37151;SDS011;23046;50.112;8.952;2023-11-19T00:33:52;1.70;;;1.57;;
37151;SDS011;23046;50.112;8.952;2023-11-19T00:34:03;1.70;;;1.60;;
37151;SDS011;23046;50.112;8.952;2023-11-19T00:34:13;1.70;;;1.50;;
37151;SDS011;23046;50.112;8.952;2023-11-19T00:34:23;2.00;;;1.50;;
37151;SDS011;23046;50.112;8.952;2023-11-19T00:34:33;2.20;;;1.53;;
37151;SDS011;23046;50.112;8.952;2023-11-19T00:34:44;2.23;;;1.60;;
37151;SDS011;23046;50.112;8.952;2023-11-19T00:34:54;1.80;;;1.50;;
37151;SDS011;23046;50.112;8.952;2023-11-19T00:35:07;1.73;;;1.60;;
37151;SDS011;23046;50.112;8.952;2023-11-19T00:35:18;2.00;;;1.70;;
37151;SDS011;23046;50.112;8.952;2023-11-19T00:35:28;1.73;;;1.63;;
37151;SDS011;23046;50.112;8.952;2023-11-19T00:35:38;1.70;;;1.60;;
37151;SDS011;23046;50.112;8.952;2023-11-19T00:35:48;1.57;;;1.47;;
37151;SDS011;23046;50.112;8.952;2023-11-19T00:35:58;1.50;;;1.40;;
37151;SDS011;23046;50.112;8.952;2023-11-19T00:36:09;1.37;;;1.27;;
37151;SDS011;23046;50.112;8.952;2023-11-19T00:36:19;2.03;;;1.30;;
37151;SDS011;23046;50.112;8.952;2023-11-19T00:36:29;2.17;;;1.40;;
37151;SDS011;23046;50.112;8.952;2023-11-19T00:36:39;2.70;;;1.50;;
37151;SDS011;23046;50.112;8.952;2023-11-19T00:36:49;1.80;;;1.47;;
37151;SDS011;23046;50.112;8.952;2023-11-19T00:37:00;1.63;;;1.50;;
37151;SDS011;23046;50.112;8.952;2023-11-19T00:37:10;1.57;;;1.47;;
37151;SDS011;23046;50.112;8.952;2023-11-19T00:37:20;1.65;;;1.52;;
37151;SDS011;23046;50.112;8.952;2023-11-19T00:37:30;1.70;;;1.60;;
37151;SDS011;23046;50.112;8.952;2023-11-19T00:37:40;1.97;;;1.60;;
37151;SDS011;23046;50.112;8.952;2023-11-19T00:37:52;1.70;;;1.60;;
37151;SDS011;23046;50.112;8.952;2023-11-19T00:38:04;1.75;;;1.65;;
37151;SDS011;23046;50.112;8.952;2023-11-19T00:38:14;1.70;;;1.60;;
37151;SDS011;23046;50.112;8.952;2023-11-19T00:38:24;1.90;;;1.47;;
37151;SDS011;23046;50.112;8.952;2023-11-19T00:38:35;1.97;;;1.40;;
37151;SDS011;23046;50.112;8.952;2023-11-19T00:38:45;2.43;;;1.30;;
37151;SDS011;23046;50.112;8.952;2023-11-19T00:38:55;2.90;;;1.40;;
37151;SDS011;23046;50.112;8.952;2023-11-19T00:39:05;2.75;;;1.50;;
37151;SDS011;23046;50.112;8.952;2023-11-19T00:39:16;2.40;;;1.70;;
37151;SDS011;23046;50.112;8.952;2023-11-19T00:39:27;1.75;;;1.65;;
37151;SDS011;23046;50.112;8.952;2023-11-19T00:39:38;2.00;;;1.80;;
37151;SDS011;23046;50.112;8.952;2023-11-19T00:39:48;1.80;;;1.70;;
37151;SDS011;23046;50.112;8.952;2023-11-19T00:39:58;1.80;;;1.70;;
37151;SDS011;23046;50.112;8.952;2023-11-19T00:40:08;1.52;;;1.42;;
37151;SDS011;23046;50.112;8.952;2023-11-19T00:40:20;1.80;;;1.50;;
37151;SDS011;23046;50.112;8.952;2023-11-19T00:40:32;1.95;;;1.67;;
37151;SDS011;23046;50.112;8.952;2023-11-19T00:40:43;2.27;;;1.60;;
37151;SDS011;23046;50.112;8.952;2023-11-19T00:40:54;2.92;;;1.70;;
37151;SDS011;23046;50.112;8.952;2023-11-19T00:41:04;2.90;;;1.60;;
37151;SDS011;23046;50.112;8.952;2023-11-19T00:41:14;2.33;;;1.55;;
37151;SDS011;23046;50.112;8.952;2023-11-19T00:41:26;1.67;;;1.58;;
37151;SDS011;23046;50.112;8.952;2023-11-19T00:41:36;1.63;;;1.52;;
37151;SDS011;23046;50.112;8.952;2023-11-19T00:41:47;1.57;;;1.47;;
37151;SDS011;23046;50.112;8.952;2023-11-19T00:41:57;1.57;;;1.47;;
37151;SDS011;23046;50.112;8.952;2023-11-19T00:42:07;1.60;;;1.50;;
37151;SDS011;23046;50.112;8.952;2023-11-19T00:42:17;1.95;;;1.58;;
37151;SDS011;23046;50.112;8.952;2023-11-19T00:42:28;1.63;;;1.40;;
37151;SDS011;23046;50.112;8.952;2023-11-19T00:42:38;1.73;;;1.40;;
37151;SDS011;23046;50.112;8.952;2023-11-19T00:42:48;1.50;;;1.40;;
37151;SDS011;23046;50.112;8.952;2023-11-19T00:42:59;1.47;;;1.37;;
37151;SDS011;23046;50.112;8.952;2023-11-19T00:43:09;1.40;;;1.30;;
37151;SDS011;23046;50.112;8.952;2023-11-19T00:43:19;1.52;;;1.42;;
37151;SDS011;23046;50.112;8.952;2023-11-19T00:43:32;1.70;;;1.60;;
37151;SDS011;23046;50.112;8.952;2023-11-19T00:43:42;1.80;;;1.70;;
37151;SDS011;23046;50.112;8.952;2023-11-19T00:43:52;1.70;;;1.60;;
37151;SDS011;23046;50.112;8.952;2023-11-19T00:44:03;2.33;;;1.50;;
37151;SDS011;23046;50.112;8.952;2023-11-19T00:44:13;1.93;;;1.33;;
37151;SDS011;23046;50.112;8.952;2023-11-19T00:44:23;1.90;;;1.40;;
37151;SDS011;23046;50.112;8.952;2023-11-19T00:44:34;1.58;;;1.35;;
37151;SDS011;23046;50.112;8.952;2023-11-19T00:44:44;1.80;;;1.33;;
37151;SDS011;23046;50.112;8.952;2023-11-19T00:44:56;1.60;;;1.30;;
37151;SDS011;23046;50.112;8.952;2023-11-19T00:45:06;1.50;;;1.40;;
37151;SDS011;23046;50.112;8.952;2023-11-19T00:45:20;1.48;;;1.38;;
37151;SDS011;23046;50.112;8.952;2023-11-19T00:45:30;1.50;;;1.37;;
37151;SDS011;23046;50.112;8.952;2023-11-19T00:45:41;1.73;;;1.40;;
37151;SDS011;23046;50.112;8.952;2023-11-19T00:45:51;2.00;;;1.50;;
37151;SDS011;23046;50.112;8.952;2023-11-19T00:46:01;2.13;;;1.57;;
37151;SDS011;23046;50.112;8.952;2023-11-19T00:46:14;1.75;;;1.50;;
37151;SDS011;23046;50.112;8.952;2023-11-19T00:46:25;1.50;;;1.40;;
37151;SDS011;23046;50.112;8.952;2023-11-19T00:46:35;1.90;;;1.50;;
37151;SDS011;23046;50.112;8.952;2023-11-19T00:46:45;2.10;;;1.50;;
37151;SDS011;23046;50.112;8.952;2023-11-19T00:46:55;2.10;;;1.63;;
37151;SDS011;23046;50.112;8.952;2023-11-19T00:47:05;1.70;;;1.60;;
37151;SDS011;23046;50.112;8.952;2023-11-19T00:47:15;1.67;;;1.57;;
37151;SDS011;23046;50.112;8.952;2023-11-19T00:47:26;1.50;;;1.40;;
37151;SDS011;23046;50.112;8.952;2023-11-19T00:47:36;1.40;;;1.30;;
37151;SDS011;23046;50.112;8.952;2023-11-19T00:47:46;1.40;;;1.30;;
37151;SDS011;23046;50.112;8.952;2023-11-19T00:47:57;1.60;;;1.33;;
37151;SDS011;23046;50.112;8.952;2023-11-19T00:48:09;2.22;;;1.40;;
37151;SDS011;23046;50.112;8.952;2023-11-19T00:48:19;2.23;;;1.37;;
37151;SDS011;23046;50.112;8.952;2023-11-19T00:48:30;2.50;;;1.45;;
37151;SDS011;23046;50.112;8.952;2023-11-19T00:48:42;2.47;;;1.55;;
37151;SDS011;23046;50.112;8.952;2023-11-19T00:48:52;2.35;;;1.40;;
37151;SDS011;23046;50.112;8.952;2023-11-19T00:49:03;3.13;;;1.40;;
37151;SDS011;23046;50.112;8.952;2023-11-19T00:49:13;2.50;;;1.33;;
37151;SDS011;23046;50.112;8.952;2023-11-19T00:49:23;2.37;;;1.50;;
37151;SDS011;23046;50.112;8.952;2023-11-19T00:49:33;1.70;;;1.60;;
37151;SDS011;23046;50.112;8.952;2023-11-19T00:49:43;2.00;;;1.67;;
37151;SDS011;23046;50.112;8.952;2023-11-19T00:49:54;2.37;;;1.70;;
37151;SDS011;23046;50.112;8.952;2023-11-19T00:50:04;2.35;;;1.60;;
37151;SDS011;23046;50.112;8.952;2023-11-19T00:50:14;1.70;;;1.47;;
37151;SDS011;23046;50.112;8.952;2023-11-19T00:50:25;1.63;;;1.33;;
37151;SDS011;23046;50.112;8.952;2023-11-19T00:50:35;1.40;;;1.30;;
37151;SDS011;23046;50.112;8.952;2023-11-19T00:50:46;1.50;;;1.40;;
37151;SDS011;23046;50.112;8.952;2023-11-19T00:50:56;1.52;;;1.42;;
37151;SDS011;23046;50.112;8.952;2023-11-19T00:51:06;1.50;;;1.40;;
37151;SDS011;23046;50.112;8.952;2023-11-19T00:51:16;1.50;;;1.40;;
37151;SDS011;23046;50.112;8.952;2023-11-19T00:51:27;1.43;;;1.33;;
37151;SDS011;23046;50.112;8.952;2023-11-19T00:51:37;1.42;;;1.33;;
37151;SDS011;23046;50.112;8.952;2023-11-19T00:51:47;1.50;;;1.40;;
37151;SDS011;23046;50.112;8.952;2023-11-19T00:51:58;1.60;;;1.50;;
37151;SDS011;23046;50.112;8.952;2023-11-19T00:52:09;1.58;;;1.48;;
37151;SDS011;23046;50.112;8.952;2023-11-19T00:52:19;1.50;;;1.40;;
37151;SDS011;23046;50.112;8.952;2023-11-19T00:52:29;1.50;;;1.33;;
37151;SDS011;23046;50.112;8.952;2023-11-19T00:52:39;1.67;;;1.43;;
37151;SDS011;23046;50.112;8.952;2023-11-19T00:52:50;1.67;;;1.50;;
37151;SDS011;23046;50.112;8.952;2023-11-19T00:53:00;1.60;;;1.50;;
37151;SDS011;23046;50.112;8.952;2023-11-19T00:53:10;1.98;;;1.50;;
37151;SDS011;23046;50.112;8.952;2023-11-19T00:53:20;2.27;;;1.40;;
37151;SDS011;23046;50.112;8.952;2023-11-19T00:53:32;2.28;;;1.48;;
37151;SDS011;23046;50.112;8.952;2023-11-19T00:53:42;1.47;;;1.33;;
37151;SDS011;23046;50.112;8.952;2023-11-19T00:53:52;1.40;;;1.30;;
37151;SDS011;23046;50.112;8.952;2023-11-19T00:54:03;1.43;;;1.33;;
37151;SDS011;23046;50.112;8.952;2023-11-19T00:54:13;1.45;;;1.35;;
37151;SDS011;23046;50.112;8.952;2023-11-19T00:54:24;1.33;;;1.23;;
37151;SDS011;23046;50.112;8.952;2023-11-19T00:54:35;1.30;;;1.20;;
37151;SDS011;23046;50.112;8.952;2023-11-19T00:54:45;1.47;;;1.37;;
37151;SDS011;23046;50.112;8.952;2023-11-19T00:54:56;1.50;;;1.40;;
37151;SDS011;23046;50.112;8.952;2023-11-19T00:55:07;1.67;;;1.52;;
37151;SDS011;23046;50.112;8.952;2023-11-19T00:55:17;1.70;;;1.43;;
37151;SDS011;23046;50.112;8.952;2023-11-19T00:55:27;1.80;;;1.40;;
37151;SDS011;23046;50.112;8.952;2023-11-19T00:55:38;1.60;;;1.30;;
37151;SDS011;23046;50.112;8.952;2023-11-19T00:55:48;1.30;;;1.20;;
37151;SDS011;23046;50.112;8.952;2023-11-19T00:55:58;1.17;;;1.10;;
37151;SDS011;23046;50.112;8.952;2023-11-19T00:56:10;1.30;;;1.20;;
37151;SDS011;23046;50.112;8.952;2023-11-19T00:56:22;1.50;;;1.40;;
37151;SDS011;23046;50.112;8.952;2023-11-19T00:56:33;1.77;;;1.50;;
37151;SDS011;23046;50.112;8.952;2023-11-19T00:56:43;2.03;;;1.50;;
37151;SDS011;23046;50.112;8.952;2023-11-19T00:56:54;1.95;;;1.60;;
37151;SDS011;23046;50.112;8.952;2023-11-19T00:57:05;1.90;;;1.58;;
37151;SDS011;23046;50.112;8.952;2023-11-19T00:57:16;1.50;;;1.40;;
37151;SDS011;23046;50.112;8.952;2023-11-19T00:57:26;1.60;;;1.23;;
37151;SDS011;23046;50.112;8.952;2023-11-19T00:57:36;1.65;;;1.33;;
37151;SDS011;23046;50.112;8.952;2023-11-19T00:57:47;2.00;;;1.40;;
37151;SDS011;23046;50.112;8.952;2023-11-19T00:57:57;2.63;;;1.50;;
37151;SDS011;23046;50.112;8.952;2023-11-19T00:58:08;2.60;;;1.38;;
37151;SDS011;23046;50.112;8.952;2023-11-19T00:58:18;2.10;;;1.30;;
37151;SDS011;23046;50.112;8.952;2023-11-19T00:58:28;1.30;;;1.20;;
37151;SDS011;23046;50.112;8.952;2023-11-19T00:58:39;1.27;;;1.17;;
37151;SDS011;23046;50.112;8.952;2023-11-19T00:58:49;1.25;;;1.15;;
37151;SDS011;23046;50.112;8.952;2023-11-19T00:58:59;1.40;;;1.30;;
37151;SDS011;23046;50.112;8.952;2023-11-19T00:59:10;1.30;;;1.20;;
37151;SDS011;23046;50.112;8.952;2023-11-19T00:59:20;1.75;;;1.40;;
37151;SDS011;23046;50.112;8.952;2023-11-19T00:59:31;1.90;;;1.40;;
37151;SDS011;23046;50.112;8.952;2023-11-19T00:59:42;1.87;;;1.50;;
37151;SDS011;23046;50.112;8.952;2023-11-19T00:59:52;1.92;;;1.45;;
37151;SDS011;23046;50.112;8.952;2023-11-19T01:00:02;1.75;;;1.40;;
37151;SDS011;23046;50.112;8.952;2023-11-19T01:00:19;1.45;;;1.30;;
37151;SDS011;23046;50.112;8.952;2023-11-19T01:00:29;1.40;;;1.20;;
37151;SDS011;23046;50.112;8.952;2023-11-19T01:00:42;1.45;;;1.20;;
37151;SDS011;23046;50.112;8.952;2023-11-19T01:00:53;1.30;;;1.20;;
37151;SDS011;23046;50.112;8.952;2023-11-19T01:01:03;1.40;;;1.27;;
37151;SDS011;23046;50.112;8.952;2023-11-19T01:01:13;1.40;;;1.30;;
37151;SDS011;23046;50.112;8.952;2023-11-19T01:01:24;1.40;;;1.30;;
37151;SDS011;23046;50.112;8.952;2023-11-19T01:01:36;1.40;;;1.30;;
37151;SDS011;23046;50.112;8.952;2023-11-19T01:01:46;1.30;;;1.20;;
37151;SDS011;23046;50.112;8.952;2023-11-19T01:02:01;1.48;;;1.35;;
37151;SDS011;23046;50.112;8.952;2023-11-19T01:02:13;1.50;;;1.40;;
37151;SDS011;23046;50.112;8.952;2023-11-19T01:02:24;1.45;;;1.35;;
37151;SDS011;23046;50.112;8.952;2023-11-19T01:02:34;2.00;;;1.20;;
37151;SDS011;23046;50.112;8.952;2023-11-19T01:02:45;2.45;;;1.30;;
37151;SDS011;23046;50.112;8.952;2023-11-19T01:02:55;2.90;;;1.40;;
37151;SDS011;23046;50.112;8.952;2023-11-19T01:03:06;2.17;;;1.40;;
37151;SDS011;23046;50.112;8.952;2023-11-19T01:03:17;1.73;;;1.40;;
37151;SDS011;23046;50.112;8.952;2023-11-19T01:03:27;1.73;;;1.40;;
37151;SDS011;23046;50.112;8.952;2023-11-19T01:03:37;1.60;;;1.40;;
37151;SDS011;23046;50.112;8.952;2023-11-19T01:03:47;1.65;;;1.45;;
37151;SDS011;23046;50.112;8.952;2023-11-19T01:03:58;2.10;;;1.50;;
37151;SDS011;23046;50.112;8.952;2023-11-19T01:04:08;2.03;;;1.37;;
37151;SDS011;23046;50.112;8.952;2023-11-19T01:04:18;1.93;;;1.30;;